Anza Borrego Desert State Park, California Weather observations

Data are for 10 minute period ending at time listed.
 Day   Time   Solar   Ave.   Ave.  Ave.  Vector  Max.   Baro.   Total    
  of    of     Rad.   Air    Rel.  Wind   Wind   Wind  Press.  Precip.   
Year   Day            Temp.  Hum.  Speed  Dir.   Gust                    
2017   (PST)  Kw/m2    F      %     mph   deg.    mph    mb.     in.     
-------------------------------------------------------------------------
  23   13:30   0.01   48.5    68    7.2   298    21.5   978.5    0.03 
  23   13:40   0.02   48.5    66    7.2   290    14.5   978.3    0.04 
  23   13:50   0.01   48.3    69    4.5   275     8.7   978.3    0.02 
  23   14:00   0.01   47.9    71    5.6   294    10.4   978.5    0.03 
  23   14:10   0.03   47.0    77    2.0   251     6.3   978.5    0.02 
  23   14:20   0.09   47.1    82    1.4    32     2.7   978.6    0.02 
  23   14:30   0.09   47.6    82    1.8    93     4.2   978.4    0.01 
  23   14:40   0.09   47.8    80    2.9   113     3.9   978.4    0.01 
  23   14:50   0.12   48.0    84    2.4   185     4.0   978.4    0.00 
  23   15:00   0.09   48.2    83    2.8   180     5.2   978.6    0.01 
  23   15:10   0.11   48.5    75    5.3    99    12.1   978.3    0.00 
  23   15:20   0.14   50.1    64    6.6   307    12.7   978.1    0.00 
  23   15:30   0.12   50.9    58    6.7   312    14.7   978.1    0.00 
  23   15:40   0.09   51.8    51   11.1   294    23.3   978.1    0.00 
  23   15:50   0.06   51.4    51   12.3   270    24.9   978.0    0.00 
  23   16:00   0.07   51.2    51   13.5   258    28.8   977.8    0.00 
  23   16:10   0.05   50.9    51   14.7   267    26.4   977.6    0.00 
  23   16:20   0.02   51.2    50   16.8   283    28.5   977.4    0.00 
  23   16:30   0.03   50.5    54   15.7   312    28.7   977.9    0.00 
  23   16:40   0.01   50.5    56   12.4   343    20.2   978.6    0.00 
  23   16:50   0.00   50.0    57    4.9   343    13.7   978.9    0.01 
  23   17:00   0.00   48.0    65    7.1   196    13.5   978.4    0.01 
  23   17:10   0.00   46.4    72    7.2   220    10.9   978.5    0.00 
  23   17:20   0.00   45.5    79    4.6   242     7.6   978.4    0.01 
  23   17:30   0.00   45.5    78    2.5   245     8.9   978.0    0.00 
  23   17:40   0.00   46.1    73    1.5    56     5.1   977.9    0.00 
  23   17:50   0.00   45.6    75    3.0   260     6.4   977.8    0.00 
  23   18:00   0.00   47.0    65    5.6   326    12.3   977.9    0.00 
  23   18:10   0.00   46.8    68    2.8    62     7.0   978.2    0.00 
  23   18:20   0.00   47.3    62    5.6   334    17.1   978.2    0.00 
  23   18:30   0.00   48.6    57    3.9   257    11.5   978.2    0.00 
  23   18:40   0.00   48.7    54   10.5   291    26.9   978.0    0.00 
  23   18:50   0.00   49.7    51   10.8   352    27.1   977.8    0.01 
  23   19:00   0.00   49.0    53    4.0     7     9.9   978.0    0.00 
  23   19:10   0.00   48.6    54    4.3   134     7.3   978.0    0.00 
  23   19:20   0.00   47.7    56    5.4   144    10.1   977.8    0.00 
  23   19:30   0.00   48.4    54    7.4   155    12.5   977.9    0.00 
  23   19:40   0.00   48.1    55   12.4   136    18.0   977.8    0.00 
  23   19:50   0.00   47.2    59   10.7   145    15.5   978.0    0.00 
  23   20:00   0.00   46.9    60   11.1   153    17.0   978.2    0.00 
  23   20:10   0.00   47.2    58   11.0   127    14.2   978.1    0.00 
  23   20:20   0.00   47.3    57    7.4   127    13.2   978.2    0.00 
  23   20:30   0.00   46.9    58   12.0   161    19.5   978.3    0.00 
  23   20:40   0.00   48.2    53   11.7   140    14.5   978.5    0.00 
  23   20:50   0.00   47.1    57   11.9   130    14.8   978.5    0.00 
  23   21:00   0.00   47.9    53   12.2   141    20.5   978.5    0.00 
  23   21:10   0.00   47.2    58    9.1   107    13.2   978.4    0.00 
  23   21:20   0.00   46.5    58    8.6    87    13.4   978.5    0.00 
  23   21:30   0.00   45.1    64    2.8   122     6.6   978.6    0.00 
  23   21:40   0.00   44.8    64    4.9   318     6.9   978.8    0.00 
  23   21:50   0.00   45.5    62    3.3   230     6.7   978.7    0.00 
  23   22:00   0.00   45.4    62    4.8   195     9.3   978.7    0.00 
  23   22:10   0.00   45.4    62    7.2   181    11.8   978.7    0.00 
  23   22:20   0.00   45.1    63    6.9   164    13.4   978.8    0.00 
  23   22:30   0.00   47.2    55    8.9   148    15.6   978.7    0.00 
  23   22:40   0.00   47.4    55    6.2   110    11.1   978.8    0.00 
  23   22:50   0.00   47.7    53    7.2   286    18.0   978.9    0.00 
  23   23:00   0.00   48.6    51   10.7   319    26.4   978.9    0.00 
  23   23:10   0.00   49.0    50   17.7   329    35.8   978.8    0.00 
  23   23:20   0.00   49.4    48   12.5   324    25.2   978.9    0.00 
  23   23:30   0.00   49.8    46   16.7   324    29.7   978.8    0.00 
  23   23:40   0.00   50.0    45    9.4    25    24.6   979.1    0.00 
  23   23:50   0.00   50.4    45    8.9   330    27.3   978.9    0.00 
  24    0:00   0.00   48.8    49   13.5   322    31.4   978.9    0.00 
  24    0:10   0.00   49.7    48    6.5   329    15.1   978.9    0.00 
  24    0:20   0.00   47.0    56    8.0    82    14.8   979.1    0.00 
  24    0:30   0.00   47.0    54    3.7   100     8.3   979.1    0.00 
  24    0:40   0.00   46.3    58    6.1   124    12.1   979.0    0.00 
  24    0:50   0.00   45.7    60    7.4   103    11.2   979.0    0.00 
  24    1:00   0.00   45.3    62    5.5    81    11.0   979.0    0.00 
  24    1:10   0.00   45.4    62    7.8    99    13.3   979.2    0.00 
  24    1:20   0.00   45.4    62    5.7    66    14.7   979.5    0.00 
  24    1:30   0.00   47.1    56    7.6    64    12.8   979.5    0.00 
  24    1:40   0.00   46.7    58    6.5    82    14.0   979.4    0.00 
  24    1:50   0.00   44.8    63    5.4   115     8.3   979.5    0.00 
  24    2:00   0.00   45.4    60    5.9   146    18.6   979.5    0.00 
  24    2:10   0.00   46.6    56    6.8   113    17.7   979.6    0.00 
  24    2:20   0.00   46.4    58    5.8   157    10.4   979.8    0.00 
  24    2:30   0.00   46.4    58    7.3   147    12.5   979.8    0.00 
  24    2:40   0.00   45.8    60    8.0    44    13.7   979.9    0.00 
  24    2:50   0.00   46.8    55    2.3     2     6.1   980.1    0.00 
  24    3:00   0.00   46.9    56    1.6    98     3.9   979.9    0.00 
  24    3:10   0.00   46.1    60    4.2   248     8.4   980.0    0.00 
  24    3:20   0.00   44.8    65    4.8   195     7.5   980.0    0.00 
  24    3:30   0.00   45.1    63    3.8   304     7.2   980.0    0.00 
  24    3:40   0.00   45.3    62    1.5   327     3.4   980.0    0.00 
  24    3:50   0.00   45.5    62    2.6   169     5.3   980.1    0.00 
  24    4:00   0.00   44.8    65    4.8   174     6.2   980.0    0.00 
  24    4:10   0.00   44.4    67    3.1   244     5.5   980.0    0.00 
  24    4:20   0.00   43.6    70    4.9   193     6.8   979.9    0.00 
  24    4:30   0.00   44.0    68   10.1   158    13.6   980.0    0.00 
  24    4:40   0.00   45.3    63    9.7   150    12.3   980.0    0.00 
  24    4:50   0.00   45.1    64    7.4   162    12.1   980.2    0.00 
  24    5:00   0.00   44.6    65    7.7   162    11.5   980.3    0.00 
  24    5:10   0.00   44.8    64    4.4   314     8.6   980.5    0.00 
  24    5:20   0.00   45.7    60    3.3   354     7.5   980.6    0.00 
  24    5:30   0.00   45.2    61    2.6   296     4.4   980.8    0.00 
  24    5:40   0.00   44.5    64    2.2   276     4.4   981.0    0.00 
  24    5:50   0.00   44.3    64    2.6   251     4.8   981.1    0.00 
  24    6:00   0.00   43.7    66    4.1   190     5.5   981.2    0.00 
  24    6:10   0.00   42.5    69    4.4   167     5.8   981.4    0.00 
  24    6:20   0.00   43.1    67    5.7   208     9.3   981.5    0.00 
  24    6:30   0.00   43.5    66    5.9   222     9.5   981.6    0.00 
  24    6:40   0.00   43.7    66    6.9   238    11.5   981.7    0.00 
  24    6:50   0.00   43.1    68    5.8   234     8.8   981.8    0.00 
  24    7:00   0.01   42.8    68    5.4   245     7.7   982.0    0.00 
  24    7:10   0.02   44.6    63    3.9   166     9.2   982.1    0.00 
  24    7:20   0.05   47.0    57    4.7   179     7.7   982.2    0.00 
  24    7:30   0.08   46.4    60    4.1   351     8.0   982.4    0.00 
  24    7:40   0.10   48.8    54    1.1   211     4.6   982.5    0.00 
  24    7:50   0.14   51.0    51    1.3   195     3.7   982.6    0.00 
  24    8:00   0.15   52.1    50    1.6   204     2.7   982.8    0.00 
  24    8:10   0.20   52.0    52    3.8   185     7.9   983.0    0.00 
  24    8:20   0.23   50.7    53    4.2   165     7.4   983.2    0.00 
  24    8:30   0.26   51.6    52    4.2   169     5.8   983.4    0.00 
  24    8:40   0.30   52.0    50    3.8   163     5.3   983.6    0.00 
  24    8:50   0.34   52.1    50    3.6   130     5.7   983.8    0.00 
  24    9:00   0.38   52.9    46    2.8   154     5.0   984.1    0.00 
  24    9:10   0.43   53.7    45    2.7   133     5.0   984.3    0.00 
  24    9:20   0.47   54.5    42    1.9   108     3.5   984.5    0.00 
  24    9:30   0.48   55.6    40    1.4   129     3.3   984.7    0.00 
  24    9:40   0.37   54.2    42    2.3   120     6.0   984.9    0.00 
  24    9:50   0.43   53.6    42    3.3   128     6.3   985.0    0.00 
  24   10:00   0.55   53.5    42    4.8    34     9.9   985.1    0.00 
  24   10:10   0.65   54.1    41    3.4     8     8.7   985.1    0.00 
  24   10:20   0.59   56.7    39    1.6   215     4.5   985.2    0.00 
  24   10:30   0.65   56.2    39    5.5   247    10.2   985.2    0.00 
  24   10:40   0.64   55.1    41    5.7   284    12.6   985.3    0.00 
  24   10:50   0.69   55.5    41    5.7   240    12.3   985.2    0.00 
  24   11:00   0.80   56.1    41    7.2    62    16.9   985.1    0.00 
  24   11:10   0.52   55.8    41    6.6    55    10.7   985.2    0.00 
  24   11:20   0.37   54.4    42    5.3    35     9.5   985.2    0.00 
  24   11:30   0.28   53.7    43    6.0   341    11.9   985.1    0.00 
  24   11:40   0.35   53.6    44    4.3   294     9.6   984.9    0.00 
  24   11:50   0.72   55.1    42    2.6   201     4.5   984.6    0.00 
  24   12:00   0.94   57.1    38    1.7    41     4.0   984.6    0.00 
  24   12:10   0.75   57.4    38    3.2   354     5.3   984.5    0.00 
  24   12:20   0.48   56.7    39    3.7   347     7.5   984.5    0.00 
  24   12:30   0.31   55.1    42    6.2    15     9.3   984.4    0.00 
  24   12:40   0.32   55.2    41    4.5    62     7.3   984.2    0.00 
  24   12:50   0.45   55.5    40    4.0    86    10.8   984.2    0.00 
  24   13:00   0.34   55.1    41    2.6   123     6.4   984.1    0.00 
  24   13:10   0.58   56.0    41    2.1    87     4.8   984.1    0.00 
  24   13:20   0.30   56.0    43    6.3   322    17.1   984.1    0.00 

Return to Anza Borrego Desert State Park graphs page.


Western Regional Climate Center,wrcc@dri.edu